CST,Max TemperatureF,Mean TemperatureF,Min TemperatureF,Max Dew PointF,MeanDew PointF,Min DewpointF,Max Humidity, Mean Humidity, Min Humidity, Max Sea Level PressureIn, Mean Sea Level PressureIn, Min Sea Level PressureIn, Max VisibilityMiles, Mean VisibilityMiles, Min VisibilityMiles, Max Wind SpeedMPH, Mean Wind SpeedMPH, Max Gust SpeedMPH,PrecipitationIn, CloudCover, Events, WindDirDegrees
2011-10-1,86,80,75,75,74,72,94,72,62,29.90,29.85,29.78,6,6,6,8,6,,0.00,4,,56
2011-10-2,86,80,73,75,74,72,94,76,66,29.92,29.85,29.70,6,6,6,8,5,,0.00,5,,8
2011-10-3,86,80,75,75,74,72,94,79,70,29.95,29.88,29.81,6,6,6,13,5,,0.00,5,Rain-Thunderstorm,346
2011-10-4,84,78,73,75,73,72,94,88,74,29.97,29.88,29.80,6,6,6,6,4,,0.00,5,,261
2011-10-5,86,80,73,75,73,70,89,78,70,29.92,29.85,29.78,6,6,6,13,6,,0.00,4,,288
2011-10-6,84,80,75,75,73,72,89,78,70,29.91,29.84,29.78,6,6,6,9,4,,0.00,5,,321
2011-10-7,87,80,73,75,73,72,94,74,62,29.89,29.82,29.75,6,6,6,14,7,,0.00,5,,325
2011-10-8,86,80,75,77,75,72,89,75,66,29.87,29.80,29.75,6,6,6,16,5,,0.00,6,,341
2011-10-9,89,84,78,77,74,72,89,75,55,29.86,29.80,29.76,6,6,6,15,6,,0.00,4,Rain,286
2011-10-10,86,80,73,75,74,72,94,77,66,29.88,29.82,29.77,6,6,6,9,5,,0.00,5,Thunderstorm,309
2011-10-11,86,78,71,75,73,70,94,77,66,29.90,29.84,29.81,6,6,6,13,7,,0.00,6,,133
2011-10-12,86,78,71,75,73,70,94,72,62,29.91,29.85,29.80,6,6,6,13,7,,0.00,5,,96
2011-10-13,86,80,73,73,72,70,94,75,58,29.86,29.81,29.76,6,6,5,13,8,,0.00,5,Rain-Thunderstorm,134
2011-10-14,86,78,71,75,73,70,94,74,66,29.85,29.79,29.75,6,6,6,8,5,,0.00,5,,94
2011-10-15,86,78,71,75,73,70,94,75,66,29.88,29.84,29.78,6,6,6,12,5,,0.00,5,,115
2011-10-16,82,75,68,75,71,66,94,84,70,29.95,29.89,29.84,6,6,5,12,4,,0.00,5,Rain,178
2011-10-17,84,76,69,73,71,68,94,77,66,29.94,29.88,29.82,6,6,6,9,5,,0.00,5,,142
2011-10-18,86,80,75,75,73,72,89,74,66,29.93,29.88,29.84,6,6,6,8,6,,0.00,5,Thunderstorm,74
2011-10-19,84,78,73,75,73,70,89,79,70,29.97,29.94,29.90,6,6,6,5,2,,0.00,5,,343
2011-10-20,80,76,71,73,71,70,94,85,70,30.04,29.98,29.93,6,6,5,7,3,,0.00,5,Rain,13
2011-10-21,78,74,69,72,70,68,94,82,74,30.00,29.95,29.88,6,6,3,7,5,,0.00,6,Rain,257
2011-10-22,84,76,68,73,70,68,100,82,66,29.90,29.86,29.81,6,5,1,14,8,,0.00,5,Rain-Thunderstorm,291
2011-10-23,84,76,69,73,71,68,94,76,62,29.92,29.87,29.82,6,6,6,8,4,,0.00,4,,132
2011-10-24,84,76,69,73,70,68,94,77,62,30.00,29.94,29.88,6,6,6,8,6,,0.00,5,,260
2011-10-25,86,78,71,72,70,68,88,69,58,29.96,29.89,29.83,6,6,6,6,5,,0.00,4,,100
2011-10-26,84,78,71,73,72,68,88,73,66,29.89,29.82,29.74,6,6,6,8,6,,0.00,3,,354
2011-10-27,86,78,71,75,73,70,94,77,66,29.83,29.77,29.71,6,6,6,14,6,,0.00,4,,310
2011-10-28,86,78,71,75,74,70,94,77,66,29.86,29.80,29.74,6,6,6,14,8,,0.00,4,,310
2011-10-29,77,74,73,73,72,72,94,91,89,29.91,29.85,29.78,6,6,4,10,6,,0.00,5,Rain,289
2011-10-30,82,78,75,73,72,70,89,82,74,29.92,29.86,29.81,6,6,5,17,8,,0.00,5,,290
2011-10-31,84,76,69,73,72,68,94,84,70,29.89,29.84,29.80,6,6,6,12,4,,0.00,5,,296